sensor_id;sensor_type;location;lat;lon;timestamp;temperature;humidity
13354;DHT22;6746;50.892;4.064;2023-07-31T00:02:31;16.10;99.90
13354;DHT22;6746;50.892;4.064;2023-07-31T00:05:19;16.10;99.90
13354;DHT22;6746;50.892;4.064;2023-07-31T00:07:58;16.10;99.90
13354;DHT22;6746;50.892;4.064;2023-07-31T00:10:36;16.10;99.90
13354;DHT22;6746;50.892;4.064;2023-07-31T00:13:22;16.20;99.90
13354;DHT22;6746;50.892;4.064;2023-07-31T00:16:00;16.20;99.90
13354;DHT22;6746;50.892;4.064;2023-07-31T00:18:38;16.30;99.90
13354;DHT22;6746;50.892;4.064;2023-07-31T00:21:16;16.30;99.90
13354;DHT22;6746;50.892;4.064;2023-07-31T00:24:04;16.30;99.90
13354;DHT22;6746;50.892;4.064;2023-07-31T00:26:51;16.30;99.90
13354;DHT22;6746;50.892;4.064;2023-07-31T00:29:29;16.30;99.90
13354;DHT22;6746;50.892;4.064;2023-07-31T00:32:10;16.30;99.90
13354;DHT22;6746;50.892;4.064;2023-07-31T00:34:48;16.30;99.90
13354;DHT22;6746;50.892;4.064;2023-07-31T00:37:27;16.30;99.90
13354;DHT22;6746;50.892;4.064;2023-07-31T00:40:05;16.30;99.90
13354;DHT22;6746;50.892;4.064;2023-07-31T00:42:46;16.30;99.90
13354;DHT22;6746;50.892;4.064;2023-07-31T00:45:24;16.30;99.90
13354;DHT22;6746;50.892;4.064;2023-07-31T00:48:12;16.30;99.90
13354;DHT22;6746;50.892;4.064;2023-07-31T00:50:50;16.30;99.90
13354;DHT22;6746;50.892;4.064;2023-07-31T00:53:28;16.30;99.90
13354;DHT22;6746;50.892;4.064;2023-07-31T00:56:16;16.40;99.90
13354;DHT22;6746;50.892;4.064;2023-07-31T00:58:55;16.40;99.90
13354;DHT22;6746;50.892;4.064;2023-07-31T01:01:33;16.40;99.90
13354;DHT22;6746;50.892;4.064;2023-07-31T01:04:21;16.40;99.90
13354;DHT22;6746;50.892;4.064;2023-07-31T01:10:15;16.40;99.90
13354;DHT22;6746;50.892;4.064;2023-07-31T01:13:04;16.40;99.90
13354;DHT22;6746;50.892;4.064;2023-07-31T01:15:43;16.40;99.90
13354;DHT22;6746;50.892;4.064;2023-07-31T01:18:31;16.50;99.90
13354;DHT22;6746;50.892;4.064;2023-07-31T01:21:39;16.50;99.90
13354;DHT22;6746;50.892;4.064;2023-07-31T01:24:36;16.50;99.90
13354;DHT22;6746;50.892;4.064;2023-07-31T01:27:15;16.60;99.90
13354;DHT22;6746;50.892;4.064;2023-07-31T01:32:46;16.60;99.90
13354;DHT22;6746;50.892;4.064;2023-07-31T01:35:24;16.60;99.90
13354;DHT22;6746;50.892;4.064;2023-07-31T01:38:12;16.60;99.90
13354;DHT22;6746;50.892;4.064;2023-07-31T01:41:00;16.60;99.90
13354;DHT22;6746;50.892;4.064;2023-07-31T01:43:48;16.60;99.90
13354;DHT22;6746;50.892;4.064;2023-07-31T01:46:36;16.70;99.90
13354;DHT22;6746;50.892;4.064;2023-07-31T01:49:25;16.70;99.90
13354;DHT22;6746;50.892;4.064;2023-07-31T01:52:13;16.70;99.90
13354;DHT22;6746;50.892;4.064;2023-07-31T01:55:01;16.60;99.90
13354;DHT22;6746;50.892;4.064;2023-07-31T01:57:49;16.60;99.90
13354;DHT22;6746;50.892;4.064;2023-07-31T02:00:37;16.60;99.90
13354;DHT22;6746;50.892;4.064;2023-07-31T02:03:26;16.60;99.90
13354;DHT22;6746;50.892;4.064;2023-07-31T02:06:14;16.60;99.90
13354;DHT22;6746;50.892;4.064;2023-07-31T02:09:02;16.60;99.90
13354;DHT22;6746;50.892;4.064;2023-07-31T02:11:50;16.60;99.90
13354;DHT22;6746;50.892;4.064;2023-07-31T02:14:39;16.70;99.90
13354;DHT22;6746;50.892;4.064;2023-07-31T02:17:27;16.70;99.90
13354;DHT22;6746;50.892;4.064;2023-07-31T02:20:15;16.70;99.90
13354;DHT22;6746;50.892;4.064;2023-07-31T02:23:03;16.70;99.90
13354;DHT22;6746;50.892;4.064;2023-07-31T02:25:52;16.60;99.90
13354;DHT22;6746;50.892;4.064;2023-07-31T02:28:40;16.70;99.90
13354;DHT22;6746;50.892;4.064;2023-07-31T02:31:28;16.60;99.90
13354;DHT22;6746;50.892;4.064;2023-07-31T02:34:16;16.70;99.90
13354;DHT22;6746;50.892;4.064;2023-07-31T02:37:05;16.60;99.90
13354;DHT22;6746;50.892;4.064;2023-07-31T02:39:53;16.60;99.90
13354;DHT22;6746;50.892;4.064;2023-07-31T02:42:41;16.60;99.90
13354;DHT22;6746;50.892;4.064;2023-07-31T02:45:29;16.70;99.90
13354;DHT22;6746;50.892;4.064;2023-07-31T02:48:11;16.80;99.90
13354;DHT22;6746;50.892;4.064;2023-07-31T02:50:49;16.80;99.90
13354;DHT22;6746;50.892;4.064;2023-07-31T02:53:37;16.80;99.90
13354;DHT22;6746;50.892;4.064;2023-07-31T02:56:21;16.80;99.90
13354;DHT22;6746;50.892;4.064;2023-07-31T02:58:59;16.80;99.90
13354;DHT22;6746;50.892;4.064;2023-07-31T03:01:47;16.80;99.90
13354;DHT22;6746;50.892;4.064;2023-07-31T03:04:35;16.80;99.90
13354;DHT22;6746;50.892;4.064;2023-07-31T03:07:24;16.80;99.90
13354;DHT22;6746;50.892;4.064;2023-07-31T03:10:08;16.90;99.90
13354;DHT22;6746;50.892;4.064;2023-07-31T03:12:46;16.90;99.90
13354;DHT22;6746;50.892;4.064;2023-07-31T03:15:27;16.90;99.90
13354;DHT22;6746;50.892;4.064;2023-07-31T03:18:05;16.90;99.90
13354;DHT22;6746;50.892;4.064;2023-07-31T03:20:53;16.90;99.90
13354;DHT22;6746;50.892;4.064;2023-07-31T03:23:41;16.90;99.90
13354;DHT22;6746;50.892;4.064;2023-07-31T03:26:31;16.90;99.90
13354;DHT22;6746;50.892;4.064;2023-07-31T03:29:11;16.90;99.90
13354;DHT22;6746;50.892;4.064;2023-07-31T03:31:49;16.90;99.90
13354;DHT22;6746;50.892;4.064;2023-07-31T03:34:30;17.00;99.90
13354;DHT22;6746;50.892;4.064;2023-07-31T03:37:08;17.00;99.90
13354;DHT22;6746;50.892;4.064;2023-07-31T03:39:49;17.00;99.90
13354;DHT22;6746;50.892;4.064;2023-07-31T03:42:27;16.90;99.90
13354;DHT22;6746;50.892;4.064;2023-07-31T03:45:06;17.00;99.90
13354;DHT22;6746;50.892;4.064;2023-07-31T03:47:44;16.90;99.90
13354;DHT22;6746;50.892;4.064;2023-07-31T03:50:32;16.90;99.90
13354;DHT22;6746;50.892;4.064;2023-07-31T03:53:10;16.90;99.90
13354;DHT22;6746;50.892;4.064;2023-07-31T03:55:49;16.90;99.90
13354;DHT22;6746;50.892;4.064;2023-07-31T03:58:30;16.90;99.90
13354;DHT22;6746;50.892;4.064;2023-07-31T04:01:08;16.90;99.90
13354;DHT22;6746;50.892;4.064;2023-07-31T04:03:46;16.80;99.90
13354;DHT22;6746;50.892;4.064;2023-07-31T04:06:24;16.80;99.90
13354;DHT22;6746;50.892;4.064;2023-07-31T04:09:02;16.80;99.90
13354;DHT22;6746;50.892;4.064;2023-07-31T04:11:41;16.80;99.90
13354;DHT22;6746;50.892;4.064;2023-07-31T04:14:27;16.80;99.90
13354;DHT22;6746;50.892;4.064;2023-07-31T04:17:05;16.70;99.90
13354;DHT22;6746;50.892;4.064;2023-07-31T04:19:49;16.70;99.90
13354;DHT22;6746;50.892;4.064;2023-07-31T04:22:27;16.70;99.90
13354;DHT22;6746;50.892;4.064;2023-07-31T04:25:15;16.70;99.90
13354;DHT22;6746;50.892;4.064;2023-07-31T04:27:46;16.70;99.90
13354;DHT22;6746;50.892;4.064;2023-07-31T04:30:19;16.70;99.90
13354;DHT22;6746;50.892;4.064;2023-07-31T04:33:08;16.70;99.90
13354;DHT22;6746;50.892;4.064;2023-07-31T04:35:53;16.80;99.90
13354;DHT22;6746;50.892;4.064;2023-07-31T04:38:31;16.70;99.90
13354;DHT22;6746;50.892;4.064;2023-07-31T04:41:17;16.80;99.90
13354;DHT22;6746;50.892;4.064;2023-07-31T04:43:55;16.70;99.90
13354;DHT22;6746;50.892;4.064;2023-07-31T04:46:32;16.80;99.90
13354;DHT22;6746;50.892;4.064;2023-07-31T04:49:03;16.70;99.90
13354;DHT22;6746;50.892;4.064;2023-07-31T04:51:37;16.80;99.90
13354;DHT22;6746;50.892;4.064;2023-07-31T04:54:06;16.80;99.90
13354;DHT22;6746;50.892;4.064;2023-07-31T04:56:55;16.80;99.90
13354;DHT22;6746;50.892;4.064;2023-07-31T04:59:43;16.70;99.90
13354;DHT22;6746;50.892;4.064;2023-07-31T05:02:25;16.70;99.90
13354;DHT22;6746;50.892;4.064;2023-07-31T05:05:00;16.70;99.90
13354;DHT22;6746;50.892;4.064;2023-07-31T05:07:48;16.70;99.90
13354;DHT22;6746;50.892;4.064;2023-07-31T05:10:36;16.70;99.90
13354;DHT22;6746;50.892;4.064;2023-07-31T05:13:14;16.70;99.90
13354;DHT22;6746;50.892;4.064;2023-07-31T05:15:52;16.70;99.90
13354;DHT22;6746;50.892;4.064;2023-07-31T05:18:30;16.70;99.90
13354;DHT22;6746;50.892;4.064;2023-07-31T05:21:09;16.70;99.90
13354;DHT22;6746;50.892;4.064;2023-07-31T05:23:44;16.70;99.90
13354;DHT22;6746;50.892;4.064;2023-07-31T05:26:13;16.60;99.90
13354;DHT22;6746;50.892;4.064;2023-07-31T05:28:52;16.60;99.90
13354;DHT22;6746;50.892;4.064;2023-07-31T05:31:40;16.60;99.90
13354;DHT22;6746;50.892;4.064;2023-07-31T05:34:18;16.70;99.90
13354;DHT22;6746;50.892;4.064;2023-07-31T05:36:56;16.70;99.90
13354;DHT22;6746;50.892;4.064;2023-07-31T05:39:27;16.70;99.90
13354;DHT22;6746;50.892;4.064;2023-07-31T05:41:56;16.70;99.90
13354;DHT22;6746;50.892;4.064;2023-07-31T05:44:28;16.70;99.90
13354;DHT22;6746;50.892;4.064;2023-07-31T05:46:57;16.70;99.90
13354;DHT22;6746;50.892;4.064;2023-07-31T05:49:34;16.70;99.90
13354;DHT22;6746;50.892;4.064;2023-07-31T05:52:05;16.70;99.90
13354;DHT22;6746;50.892;4.064;2023-07-31T05:54:34;16.70;99.90
13354;DHT22;6746;50.892;4.064;2023-07-31T05:57:03;16.70;99.90
13354;DHT22;6746;50.892;4.064;2023-07-31T05:59:42;16.70;99.90
13354;DHT22;6746;50.892;4.064;2023-07-31T06:02:20;16.80;99.90
13354;DHT22;6746;50.892;4.064;2023-07-31T06:04:58;16.80;99.90
13354;DHT22;6746;50.892;4.064;2023-07-31T06:07:37;16.80;99.90
13354;DHT22;6746;50.892;4.064;2023-07-31T06:10:15;16.80;99.90
13354;DHT22;6746;50.892;4.064;2023-07-31T06:12:53;16.80;99.90
13354;DHT22;6746;50.892;4.064;2023-07-31T06:15:32;16.90;99.90
13354;DHT22;6746;50.892;4.064;2023-07-31T06:18:10;16.90;99.90
13354;DHT22;6746;50.892;4.064;2023-07-31T06:20:41;16.90;99.90
13354;DHT22;6746;50.892;4.064;2023-07-31T06:23:10;16.90;99.90
13354;DHT22;6746;50.892;4.064;2023-07-31T06:25:39;17.00;99.90
13354;DHT22;6746;50.892;4.064;2023-07-31T06:28:08;17.00;99.90
13354;DHT22;6746;50.892;4.064;2023-07-31T06:30:47;17.00;99.90
13354;DHT22;6746;50.892;4.064;2023-07-31T06:33:15;17.10;99.90
13354;DHT22;6746;50.892;4.064;2023-07-31T06:35:54;17.10;99.90
13354;DHT22;6746;50.892;4.064;2023-07-31T06:38:32;17.20;99.90
13354;DHT22;6746;50.892;4.064;2023-07-31T06:41:10;17.30;99.90
13354;DHT22;6746;50.892;4.064;2023-07-31T06:43:48;17.30;99.90
13354;DHT22;6746;50.892;4.064;2023-07-31T06:46:27;17.40;99.90
13354;DHT22;6746;50.892;4.064;2023-07-31T06:48:55;17.40;99.90
13354;DHT22;6746;50.892;4.064;2023-07-31T06:51:24;17.50;99.90
13354;DHT22;6746;50.892;4.064;2023-07-31T06:54:02;17.70;99.90
13354;DHT22;6746;50.892;4.064;2023-07-31T06:56:46;17.80;99.90
13354;DHT22;6746;50.892;4.064;2023-07-31T06:59:15;17.80;99.90
13354;DHT22;6746;50.892;4.064;2023-07-31T07:01:53;17.80;99.90
13354;DHT22;6746;50.892;4.064;2023-07-31T07:04:31;17.90;99.90
13354;DHT22;6746;50.892;4.064;2023-07-31T07:07:02;18.00;99.90
13354;DHT22;6746;50.892;4.064;2023-07-31T07:09:31;18.00;99.90
13354;DHT22;6746;50.892;4.064;2023-07-31T07:12:00;17.90;99.90
13354;DHT22;6746;50.892;4.064;2023-07-31T07:14:29;17.90;99.90
13354;DHT22;6746;50.892;4.064;2023-07-31T07:17:08;17.90;99.90
13354;DHT22;6746;50.892;4.064;2023-07-31T07:19:47;17.80;99.90
13354;DHT22;6746;50.892;4.064;2023-07-31T07:22:24;17.70;99.90
13354;DHT22;6746;50.892;4.064;2023-07-31T07:25:03;17.70;99.90
13354;DHT22;6746;50.892;4.064;2023-07-31T07:27:40;17.70;99.90
13354;DHT22;6746;50.892;4.064;2023-07-31T07:30:19;17.70;99.90
13354;DHT22;6746;50.892;4.064;2023-07-31T07:32:47;17.80;99.90
13354;DHT22;6746;50.892;4.064;2023-07-31T07:35:16;17.90;99.90
13354;DHT22;6746;50.892;4.064;2023-07-31T07:38:03;18.00;99.90
13354;DHT22;6746;50.892;4.064;2023-07-31T07:40:41;18.00;99.90
13354;DHT22;6746;50.892;4.064;2023-07-31T07:43:19;18.10;99.90
13354;DHT22;6746;50.892;4.064;2023-07-31T07:45:48;18.30;99.90
13354;DHT22;6746;50.892;4.064;2023-07-31T07:48:23;18.30;99.90
13354;DHT22;6746;50.892;4.064;2023-07-31T07:51:01;18.40;99.90
13354;DHT22;6746;50.892;4.064;2023-07-31T07:53:40;18.60;99.90
13354;DHT22;6746;50.892;4.064;2023-07-31T07:56:18;18.70;99.90
13354;DHT22;6746;50.892;4.064;2023-07-31T07:58:56;18.80;99.90
13354;DHT22;6746;50.892;4.064;2023-07-31T08:01:44;18.90;99.90
13354;DHT22;6746;50.892;4.064;2023-07-31T08:04:32;19.00;99.90
13354;DHT22;6746;50.892;4.064;2023-07-31T08:07:11;19.00;99.90
13354;DHT22;6746;50.892;4.064;2023-07-31T08:09:49;18.90;99.90
13354;DHT22;6746;50.892;4.064;2023-07-31T08:12:27;18.80;99.90
13354;DHT22;6746;50.892;4.064;2023-07-31T08:15:05;18.80;99.90
13354;DHT22;6746;50.892;4.064;2023-07-31T08:17:44;18.70;99.90
13354;DHT22;6746;50.892;4.064;2023-07-31T08:20:22;18.70;99.90
13354;DHT22;6746;50.892;4.064;2023-07-31T08:23:00;18.60;99.90
13354;DHT22;6746;50.892;4.064;2023-07-31T08:25:39;18.70;99.90
13354;DHT22;6746;50.892;4.064;2023-07-31T08:28:17;18.80;99.90
13354;DHT22;6746;50.892;4.064;2023-07-31T08:30:48;18.80;99.90
13354;DHT22;6746;50.892;4.064;2023-07-31T08:33:19;18.90;99.90
13354;DHT22;6746;50.892;4.064;2023-07-31T08:35:58;19.00;99.90
13354;DHT22;6746;50.892;4.064;2023-07-31T08:38:36;19.00;99.90
13354;DHT22;6746;50.892;4.064;2023-07-31T08:41:24;18.90;99.90
13354;DHT22;6746;50.892;4.064;2023-07-31T08:44:02;18.90;99.90
13354;DHT22;6746;50.892;4.064;2023-07-31T08:46:40;18.90;99.90
13354;DHT22;6746;50.892;4.064;2023-07-31T08:49:18;18.90;99.90
13354;DHT22;6746;50.892;4.064;2023-07-31T08:51:57;18.80;99.90
13354;DHT22;6746;50.892;4.064;2023-07-31T08:54:35;18.80;99.90
13354;DHT22;6746;50.892;4.064;2023-07-31T08:57:22;18.80;99.90
13354;DHT22;6746;50.892;4.064;2023-07-31T08:59:59;18.70;99.90
13354;DHT22;6746;50.892;4.064;2023-07-31T09:02:30;18.70;99.90
13354;DHT22;6746;50.892;4.064;2023-07-31T09:05:02;18.80;99.90
13354;DHT22;6746;50.892;4.064;2023-07-31T09:07:31;18.90;99.90
13354;DHT22;6746;50.892;4.064;2023-07-31T09:10:10;19.00;99.90
13354;DHT22;6746;50.892;4.064;2023-07-31T09:12:48;19.00;99.90
13354;DHT22;6746;50.892;4.064;2023-07-31T09:15:27;19.00;99.90
13354;DHT22;6746;50.892;4.064;2023-07-31T09:18:03;18.90;99.90
13354;DHT22;6746;50.892;4.064;2023-07-31T09:20:31;18.90;99.90
13354;DHT22;6746;50.892;4.064;2023-07-31T09:23:13;18.70;99.90
13354;DHT22;6746;50.892;4.064;2023-07-31T09:26:00;18.70;99.90
13354;DHT22;6746;50.892;4.064;2023-07-31T09:28:40;18.60;99.90
13354;DHT22;6746;50.892;4.064;2023-07-31T09:31:08;18.60;99.90
13354;DHT22;6746;50.892;4.064;2023-07-31T09:33:56;18.70;99.90
13354;DHT22;6746;50.892;4.064;2023-07-31T09:36:41;18.60;99.90
13354;DHT22;6746;50.892;4.064;2023-07-31T09:39:19;18.50;99.90
13354;DHT22;6746;50.892;4.064;2023-07-31T09:41:57;18.40;99.90
13354;DHT22;6746;50.892;4.064;2023-07-31T09:44:39;18.20;99.90
13354;DHT22;6746;50.892;4.064;2023-07-31T09:47:20;18.30;99.90
13354;DHT22;6746;50.892;4.064;2023-07-31T09:49:45;18.30;99.90
13354;DHT22;6746;50.892;4.064;2023-07-31T09:52:11;18.30;99.90
13354;DHT22;6746;50.892;4.064;2023-07-31T09:54:49;18.30;99.90
13354;DHT22;6746;50.892;4.064;2023-07-31T09:57:27;18.40;99.90
13354;DHT22;6746;50.892;4.064;2023-07-31T09:59:58;18.50;99.90
13354;DHT22;6746;50.892;4.064;2023-07-31T10:02:26;18.50;99.90
13354;DHT22;6746;50.892;4.064;2023-07-31T10:05:05;18.50;99.90
13354;DHT22;6746;50.892;4.064;2023-07-31T10:07:36;18.50;99.90
13354;DHT22;6746;50.892;4.064;2023-07-31T10:10:02;18.60;99.90
13354;DHT22;6746;50.892;4.064;2023-07-31T10:12:41;18.70;99.90
13354;DHT22;6746;50.892;4.064;2023-07-31T10:15:19;18.70;99.90
13354;DHT22;6746;50.892;4.064;2023-07-31T10:17:48;18.80;99.90
13354;DHT22;6746;50.892;4.064;2023-07-31T10:20:16;18.90;99.90
13354;DHT22;6746;50.892;4.064;2023-07-31T10:22:45;19.00;99.90
13354;DHT22;6746;50.892;4.064;2023-07-31T10:25:16;19.20;99.90
13354;DHT22;6746;50.892;4.064;2023-07-31T10:27:48;19.40;99.90
13354;DHT22;6746;50.892;4.064;2023-07-31T10:30:24;19.50;99.90
13354;DHT22;6746;50.892;4.064;2023-07-31T10:32:51;19.50;99.90
13354;DHT22;6746;50.892;4.064;2023-07-31T10:35:22;19.60;99.90
13354;DHT22;6746;50.892;4.064;2023-07-31T10:38:11;19.70;99.90
13354;DHT22;6746;50.892;4.064;2023-07-31T10:40:52;19.90;99.90
13354;DHT22;6746;50.892;4.064;2023-07-31T10:43:30;19.90;99.90
13354;DHT22;6746;50.892;4.064;2023-07-31T10:46:01;20.00;99.90
13354;DHT22;6746;50.892;4.064;2023-07-31T10:48:32;20.10;99.90
13354;DHT22;6746;50.892;4.064;2023-07-31T10:51:06;20.10;99.90
13354;DHT22;6746;50.892;4.064;2023-07-31T10:53:31;20.10;99.90
13354;DHT22;6746;50.892;4.064;2023-07-31T10:56:08;20.00;99.90
13354;DHT22;6746;50.892;4.064;2023-07-31T10:58:36;20.00;99.90
13354;DHT22;6746;50.892;4.064;2023-07-31T11:01:24;20.00;99.90
13354;DHT22;6746;50.892;4.064;2023-07-31T11:04:07;20.10;99.90
13354;DHT22;6746;50.892;4.064;2023-07-31T11:06:30;20.00;99.90
13354;DHT22;6746;50.892;4.064;2023-07-31T11:09:01;20.10;99.90
13354;DHT22;6746;50.892;4.064;2023-07-31T11:11:30;20.10;99.90
13354;DHT22;6746;50.892;4.064;2023-07-31T11:14:02;20.10;99.90
13354;DHT22;6746;50.892;4.064;2023-07-31T11:16:31;20.10;99.90
13354;DHT22;6746;50.892;4.064;2023-07-31T11:19:00;19.80;99.90
13354;DHT22;6746;50.892;4.064;2023-07-31T11:21:29;19.70;99.90
13354;DHT22;6746;50.892;4.064;2023-07-31T11:24:17;19.60;99.90
13354;DHT22;6746;50.892;4.064;2023-07-31T11:26:56;19.60;99.90
13354;DHT22;6746;50.892;4.064;2023-07-31T11:29:32;19.70;99.90
13354;DHT22;6746;50.892;4.064;2023-07-31T11:32:01;19.80;99.90
13354;DHT22;6746;50.892;4.064;2023-07-31T11:34:53;19.80;99.90
13354;DHT22;6746;50.892;4.064;2023-07-31T11:37:22;19.80;99.90
13354;DHT22;6746;50.892;4.064;2023-07-31T11:40:00;19.80;99.90
13354;DHT22;6746;50.892;4.064;2023-07-31T11:42:38;19.80;99.90
13354;DHT22;6746;50.892;4.064;2023-07-31T11:45:09;19.70;99.90
13354;DHT22;6746;50.892;4.064;2023-07-31T11:47:38;19.70;99.90
13354;DHT22;6746;50.892;4.064;2023-07-31T11:50:17;19.70;99.90
13354;DHT22;6746;50.892;4.064;2023-07-31T11:52:59;19.80;99.90
13354;DHT22;6746;50.892;4.064;2023-07-31T11:55:35;19.80;99.90
13354;DHT22;6746;50.892;4.064;2023-07-31T11:58:13;19.90;99.90
13354;DHT22;6746;50.892;4.064;2023-07-31T12:01:02;20.00;99.90
13354;DHT22;6746;50.892;4.064;2023-07-31T12:03:49;20.20;99.90
13354;DHT22;6746;50.892;4.064;2023-07-31T12:06:37;20.50;99.90
13354;DHT22;6746;50.892;4.064;2023-07-31T12:09:14;20.60;99.90
13354;DHT22;6746;50.892;4.064;2023-07-31T12:11:53;20.60;99.90
13354;DHT22;6746;50.892;4.064;2023-07-31T12:14:31;20.60;99.90
13354;DHT22;6746;50.892;4.064;2023-07-31T12:17:10;20.70;99.90
13354;DHT22;6746;50.892;4.064;2023-07-31T12:19:48;20.70;99.90
13354;DHT22;6746;50.892;4.064;2023-07-31T12:22:19;20.70;99.90
13354;DHT22;6746;50.892;4.064;2023-07-31T12:24:58;20.50;99.90
13354;DHT22;6746;50.892;4.064;2023-07-31T12:27:36;20.50;99.90
13354;DHT22;6746;50.892;4.064;2023-07-31T12:30:32;20.70;99.90
13354;DHT22;6746;50.892;4.064;2023-07-31T12:33:10;20.80;99.90
13354;DHT22;6746;50.892;4.064;2023-07-31T12:35:45;20.90;99.90
13354;DHT22;6746;50.892;4.064;2023-07-31T12:38:23;20.90;99.90
13354;DHT22;6746;50.892;4.064;2023-07-31T12:41:01;20.90;99.90
13354;DHT22;6746;50.892;4.064;2023-07-31T12:43:40;20.80;99.90
13354;DHT22;6746;50.892;4.064;2023-07-31T12:46:08;20.60;99.90
13354;DHT22;6746;50.892;4.064;2023-07-31T12:48:46;20.60;99.90
13354;DHT22;6746;50.892;4.064;2023-07-31T12:51:34;20.60;99.90
13354;DHT22;6746;50.892;4.064;2023-07-31T12:54:22;20.60;99.90
13354;DHT22;6746;50.892;4.064;2023-07-31T12:57:07;20.50;99.90
13354;DHT22;6746;50.892;4.064;2023-07-31T12:59:45;20.40;99.90
13354;DHT22;6746;50.892;4.064;2023-07-31T13:02:23;20.20;99.90
13354;DHT22;6746;50.892;4.064;2023-07-31T13:05:01;19.90;99.90
13354;DHT22;6746;50.892;4.064;2023-07-31T13:07:49;19.60;99.90
13354;DHT22;6746;50.892;4.064;2023-07-31T13:10:38;19.50;99.90
13354;DHT22;6746;50.892;4.064;2023-07-31T13:13:26;19.30;99.90
13354;DHT22;6746;50.892;4.064;2023-07-31T13:16:10;19.20;99.90
13354;DHT22;6746;50.892;4.064;2023-07-31T13:18:48;19.20;99.90
13354;DHT22;6746;50.892;4.064;2023-07-31T13:21:26;19.10;99.90
13354;DHT22;6746;50.892;4.064;2023-07-31T13:24:04;19.10;99.90
13354;DHT22;6746;50.892;4.064;2023-07-31T13:26:33;19.10;99.90
13354;DHT22;6746;50.892;4.064;2023-07-31T13:29:12;19.00;99.90
13354;DHT22;6746;50.892;4.064;2023-07-31T13:32:00;18.90;99.90
13354;DHT22;6746;50.892;4.064;2023-07-31T13:34:48;18.80;99.90
13354;DHT22;6746;50.892;4.064;2023-07-31T13:37:26;18.80;99.90
13354;DHT22;6746;50.892;4.064;2023-07-31T13:40:04;18.60;99.90
13354;DHT22;6746;50.892;4.064;2023-07-31T13:42:52;18.60;99.90
13354;DHT22;6746;50.892;4.064;2023-07-31T13:45:30;18.60;99.90
13354;DHT22;6746;50.892;4.064;2023-07-31T13:48:08;18.50;99.90
13354;DHT22;6746;50.892;4.064;2023-07-31T13:50:55;18.50;99.90
13354;DHT22;6746;50.892;4.064;2023-07-31T13:53:33;18.40;99.90
13354;DHT22;6746;50.892;4.064;2023-07-31T13:56:12;18.40;99.90
13354;DHT22;6746;50.892;4.064;2023-07-31T13:58:50;18.50;99.90
13354;DHT22;6746;50.892;4.064;2023-07-31T14:01:28;18.50;99.90
13354;DHT22;6746;50.892;4.064;2023-07-31T14:04:07;18.60;99.90
13354;DHT22;6746;50.892;4.064;2023-07-31T14:06:49;18.60;99.90
13354;DHT22;6746;50.892;4.064;2023-07-31T14:09:27;18.60;99.90
13354;DHT22;6746;50.892;4.064;2023-07-31T14:12:05;18.70;99.90
13354;DHT22;6746;50.892;4.064;2023-07-31T14:14:52;18.70;99.90
13354;DHT22;6746;50.892;4.064;2023-07-31T14:17:21;18.70;99.90
13354;DHT22;6746;50.892;4.064;2023-07-31T14:19:59;18.70;99.90
13354;DHT22;6746;50.892;4.064;2023-07-31T14:22:30;18.80;99.90
13354;DHT22;6746;50.892;4.064;2023-07-31T14:24:59;18.80;99.90
13354;DHT22;6746;50.892;4.064;2023-07-31T14:27:38;18.90;99.90
13354;DHT22;6746;50.892;4.064;2023-07-31T14:30:14;18.80;99.90
13354;DHT22;6746;50.892;4.064;2023-07-31T14:32:43;18.80;99.90
13354;DHT22;6746;50.892;4.064;2023-07-31T14:35:12;18.70;99.90
13354;DHT22;6746;50.892;4.064;2023-07-31T14:37:41;18.60;99.90
13354;DHT22;6746;50.892;4.064;2023-07-31T14:40:11;18.60;99.90
13354;DHT22;6746;50.892;4.064;2023-07-31T14:42:39;18.60;99.90
13354;DHT22;6746;50.892;4.064;2023-07-31T14:45:08;18.60;99.90
13354;DHT22;6746;50.892;4.064;2023-07-31T14:47:37;18.60;99.90
13354;DHT22;6746;50.892;4.064;2023-07-31T14:50:24;18.60;99.90
13354;DHT22;6746;50.892;4.064;2023-07-31T14:52:52;18.60;99.90
13354;DHT22;6746;50.892;4.064;2023-07-31T14:55:26;18.40;99.90
13354;DHT22;6746;50.892;4.064;2023-07-31T14:57:55;18.40;99.90
13354;DHT22;6746;50.892;4.064;2023-07-31T15:00:23;18.40;99.90
13354;DHT22;6746;50.892;4.064;2023-07-31T15:02:52;18.40;99.90
13354;DHT22;6746;50.892;4.064;2023-07-31T15:05:31;18.40;99.90
13354;DHT22;6746;50.892;4.064;2023-07-31T15:08:08;18.40;99.90
13354;DHT22;6746;50.892;4.064;2023-07-31T15:10:36;18.40;99.90
13354;DHT22;6746;50.892;4.064;2023-07-31T15:13:05;18.30;99.90
13354;DHT22;6746;50.892;4.064;2023-07-31T15:15:34;18.40;99.90
13354;DHT22;6746;50.892;4.064;2023-07-31T15:18:03;18.30;99.90
13354;DHT22;6746;50.892;4.064;2023-07-31T15:20:32;18.40;99.90
13354;DHT22;6746;50.892;4.064;2023-07-31T15:23:11;18.40;99.90
13354;DHT22;6746;50.892;4.064;2023-07-31T15:25:40;18.40;99.90
13354;DHT22;6746;50.892;4.064;2023-07-31T15:28:09;18.40;99.90
13354;DHT22;6746;50.892;4.064;2023-07-31T15:30:38;18.40;99.90
13354;DHT22;6746;50.892;4.064;2023-07-31T15:33:07;18.40;99.90
13354;DHT22;6746;50.892;4.064;2023-07-31T15:35:44;18.30;99.90
13354;DHT22;6746;50.892;4.064;2023-07-31T15:38:13;18.30;99.90
13354;DHT22;6746;50.892;4.064;2023-07-31T15:40:51;18.30;99.90
13354;DHT22;6746;50.892;4.064;2023-07-31T15:43:29;18.30;99.90
13354;DHT22;6746;50.892;4.064;2023-07-31T15:46:00;18.30;99.90
13354;DHT22;6746;50.892;4.064;2023-07-31T15:48:28;18.30;99.90
13354;DHT22;6746;50.892;4.064;2023-07-31T15:50:57;18.20;99.90
13354;DHT22;6746;50.892;4.064;2023-07-31T15:53:29;18.20;99.90
13354;DHT22;6746;50.892;4.064;2023-07-31T15:56:07;18.20;99.90
13354;DHT22;6746;50.892;4.064;2023-07-31T15:58:45;18.30;99.90
13354;DHT22;6746;50.892;4.064;2023-07-31T16:01:13;18.20;99.90
13354;DHT22;6746;50.892;4.064;2023-07-31T16:03:42;18.20;99.90
13354;DHT22;6746;50.892;4.064;2023-07-31T16:06:11;18.20;99.90
13354;DHT22;6746;50.892;4.064;2023-07-31T16:08:42;18.30;99.90
13354;DHT22;6746;50.892;4.064;2023-07-31T16:11:11;18.20;99.90
13354;DHT22;6746;50.892;4.064;2023-07-31T16:13:42;18.20;99.90
13354;DHT22;6746;50.892;4.064;2023-07-31T16:16:14;18.20;99.90
13354;DHT22;6746;50.892;4.064;2023-07-31T16:18:43;18.20;99.90
13354;DHT22;6746;50.892;4.064;2023-07-31T16:21:20;18.20;99.90
13354;DHT22;6746;50.892;4.064;2023-07-31T16:23:49;18.20;99.90
13354;DHT22;6746;50.892;4.064;2023-07-31T16:26:20;18.20;99.90
13354;DHT22;6746;50.892;4.064;2023-07-31T16:28:49;18.20;99.90
13354;DHT22;6746;50.892;4.064;2023-07-31T16:31:28;18.20;99.90
13354;DHT22;6746;50.892;4.064;2023-07-31T16:33:57;18.20;99.90
13354;DHT22;6746;50.892;4.064;2023-07-31T16:36:36;18.20;99.90
13354;DHT22;6746;50.892;4.064;2023-07-31T16:39:14;18.30;99.90
13354;DHT22;6746;50.892;4.064;2023-07-31T16:41:53;18.20;99.90
13354;DHT22;6746;50.892;4.064;2023-07-31T16:44:32;18.20;99.90
13354;DHT22;6746;50.892;4.064;2023-07-31T16:47:10;18.20;99.90
13354;DHT22;6746;50.892;4.064;2023-07-31T16:49:38;18.20;99.90
13354;DHT22;6746;50.892;4.064;2023-07-31T16:52:12;18.20;99.90
13354;DHT22;6746;50.892;4.064;2023-07-31T16:54:49;18.20;99.90
13354;DHT22;6746;50.892;4.064;2023-07-31T16:57:17;18.20;99.90
13354;DHT22;6746;50.892;4.064;2023-07-31T16:59:56;18.20;99.90